Time;durP1;ratioP1;P1;durP2;ratioP2;P2;SDS_P1;SDS_P2;PMS_P1;PMS_P2;Temp;Humidity;BMP_temperature;BMP_pressure;BME280_temperature;BME280_humidity;BME280_pressure;Samples;Min_cycle;Max_cycle;Signal;HPM_P1;HPM_P2
2024/03/28 00:01:14;;;;;;;3.80;2.50;;;;;;;;;;4928938;29;20090;-67
2024/03/28 00:03:40;;;;;;;2.05;1.80;;;;;;;;;;4950962;28;20047;-67
2024/03/28 00:06:06;;;;;;;4.18;1.80;;;;;;;;;;4931750;29;20423;-68
2024/03/28 00:08:32;;;;;;;3.15;2.28;;;;;;;;;;4934339;29;20443;-68
2024/03/28 00:10:58;;;;;;;3.33;2.33;;;;;;;;;;4931929;29;20042;-68
2024/03/28 00:13:24;;;;;;;2.20;1.80;;;;;;;;;;4932274;29;20384;-67
2024/03/28 00:16:01;;;;;;;2.40;2.10;;;;;;;;;;4933491;29;20047;-67
2024/03/28 00:18:28;;;;;;;2.95;2.08;;;;;;;;;;4932976;29;20059;-67
2024/03/28 00:20:55;;;;;;;3.15;2.05;;;;;;;;;;4933817;29;20491;-67
2024/03/28 00:23:22;;;;;;;2.60;2.15;;;;;;;;;;4947949;28;20040;-68
2024/03/28 00:25:54;;;;;;;2.80;1.88;;;;;;;;;;4938291;29;20035;-68
2024/03/28 00:28:21;;;;;;;2.38;2.03;;;;;;;;;;4934437;29;20039;-68
2024/03/28 00:30:48;;;;;;;5.43;2.10;;;;;;;;;;4936540;29;20051;-68
2024/03/28 00:33:15;;;;;;;3.33;1.98;;;;;;;;;;4930412;29;20051;-68
2024/03/28 00:35:45;;;;;;;3.53;2.00;;;;;;;;;;4944862;28;20043;-68
2024/03/28 00:38:11;;;;;;;4.60;2.58;;;;;;;;;;4950528;28;20051;-68
2024/03/28 00:40:46;;;;;;;4.20;2.35;;;;;;;;;;4930117;29;20039;-67
2024/03/28 00:43:12;;;;;;;2.78;2.10;;;;;;;;;;4913803;29;20039;-67
2024/03/28 00:45:38;;;;;;;3.25;2.33;;;;;;;;;;4938296;29;20238;-68
2024/03/28 00:48:05;;;;;;;3.63;2.25;;;;;;;;;;4935223;28;20073;-68
2024/03/28 00:50:32;;;;;;;3.15;2.47;;;;;;;;;;4931161;29;20399;-67
2024/03/28 00:52:58;;;;;;;3.83;2.58;;;;;;;;;;4934549;28;20059;-69
2024/03/28 00:55:25;;;;;;;3.80;2.50;;;;;;;;;;4929558;29;20361;-68
2024/03/28 00:57:51;;;;;;;3.58;2.35;;;;;;;;;;4934440;29;20400;-67
2024/03/28 01:00:18;;;;;;;3.78;2.42;;;;;;;;;;4931130;29;20070;-68
2024/03/28 01:02:44;;;;;;;3.95;2.45;;;;;;;;;;4932244;29;20051;-68
2024/03/28 01:05:11;;;;;;;2.78;2.25;;;;;;;;;;4931312;29;20036;-68
2024/03/28 01:07:38;;;;;;;4.07;2.10;;;;;;;;;;4931990;29;20047;-68
2024/03/28 01:10:04;;;;;;;3.38;2.38;;;;;;;;;;4936406;28;20051;-68
2024/03/28 01:12:30;;;;;;;3.78;2.47;;;;;;;;;;4930454;28;20039;-68
2024/03/28 01:14:56;;;;;;;3.20;2.65;;;;;;;;;;4929414;29;20495;-67
2024/03/28 01:17:23;;;;;;;4.18;2.72;;;;;;;;;;4932216;29;20032;-67
2024/03/28 01:19:50;;;;;;;3.92;2.90;;;;;;;;;;4938522;29;20111;-66
2024/03/28 01:22:17;;;;;;;5.30;3.17;;;;;;;;;;4941418;28;20048;-67
2024/03/28 01:24:43;;;;;;;5.25;3.35;;;;;;;;;;4940114;29;20043;-67
2024/03/28 01:27:09;;;;;;;6.72;3.20;;;;;;;;;;4941724;28;20039;-67
2024/03/28 01:29:36;;;;;;;5.78;3.60;;;;;;;;;;4938627;29;20040;-67
2024/03/28 01:32:02;;;;;;;5.70;3.50;;;;;;;;;;4954872;28;20035;-67
2024/03/28 01:34:28;;;;;;;6.70;3.80;;;;;;;;;;4942822;29;20047;-67
2024/03/28 01:36:54;;;;;;;4.93;3.47;;;;;;;;;;4936126;28;20067;-67
2024/03/28 01:39:20;;;;;;;6.63;4.55;;;;;;;;;;4951752;28;20043;-67
2024/03/28 01:41:49;;;;;;;6.72;3.97;;;;;;;;;;4957646;28;20039;-67
2024/03/28 01:44:16;;;;;;;8.03;4.27;;;;;;;;;;4948025;28;20047;-67
2024/03/28 01:46:44;;;;;;;7.72;4.22;;;;;;;;;;4951463;28;20043;-67
2024/03/28 01:49:11;;;;;;;6.65;4.13;;;;;;;;;;4938564;29;20051;-67
2024/03/28 01:51:39;;;;;;;6.45;4.15;;;;;;;;;;4941062;28;20031;-67
2024/03/28 01:54:06;;;;;;;7.45;4.30;;;;;;;;;;4936560;28;20051;-67
2024/03/28 01:56:34;;;;;;;8.57;4.53;;;;;;;;;;4949917;28;20385;-67
2024/03/28 01:59:02;;;;;;;8.70;4.68;;;;;;;;;;4954702;28;20039;-67
2024/03/28 02:01:28;;;;;;;6.32;4.22;;;;;;;;;;4936723;29;20051;-67
2024/03/28 02:03:55;;;;;;;6.82;4.22;;;;;;;;;;4942586;28;20054;-67
2024/03/28 02:06:22;;;;;;;7.45;4.82;;;;;;;;;;4934699;29;20103;-67
2024/03/28 02:08:49;;;;;;;8.93;4.60;;;;;;;;;;4935102;29;20357;-67
2024/03/28 02:11:19;;;;;;;8.60;4.50;;;;;;;;;;4939358;29;20040;-67
2024/03/28 02:13:46;;;;;;;6.53;4.28;;;;;;;;;;4937806;29;20039;-66
2024/03/28 02:16:12;;;;;;;7.68;4.53;;;;;;;;;;4938253;29;20031;-67
2024/03/28 02:18:38;;;;;;;7.25;4.60;;;;;;;;;;4932840;28;20050;-67
2024/03/28 02:21:04;;;;;;;7.38;4.63;;;;;;;;;;4936181;29;20035;-68
2024/03/28 02:23:30;;;;;;;7.70;4.18;;;;;;;;;;4938563;29;20059;-68
2024/03/28 02:25:56;;;;;;;7.50;4.22;;;;;;;;;;4940671;29;20050;-68
2024/03/28 02:28:22;;;;;;;7.15;4.22;;;;;;;;;;4938186;29;20044;-68
2024/03/28 02:30:49;;;;;;;6.03;3.65;;;;;;;;;;4936167;28;20047;-68
2024/03/28 02:33:15;;;;;;;6.68;3.95;;;;;;;;;;4932353;29;20503;-67
2024/03/28 02:35:41;;;;;;;7.30;4.40;;;;;;;;;;4933092;29;20030;-68
2024/03/28 02:38:07;;;;;;;6.97;4.20;;;;;;;;;;4933428;29;20038;-68
2024/03/28 02:40:33;;;;;;;9.07;4.22;;;;;;;;;;4936583;28;20058;-67
2024/03/28 02:42:59;;;;;;;7.10;3.88;;;;;;;;;;4934861;29;20031;-68
2024/03/28 02:45:25;;;;;;;7.97;4.45;;;;;;;;;;4932753;29;20526;-68
2024/03/28 02:47:51;;;;;;;6.50;3.45;;;;;;;;;;4948746;28;20407;-68
2024/03/28 02:50:17;;;;;;;6.30;3.70;;;;;;;;;;4930942;29;20039;-67
2024/03/28 02:52:43;;;;;;;7.25;4.07;;;;;;;;;;4955853;28;20056;-68
2024/03/28 02:55:09;;;;;;;5.72;3.50;;;;;;;;;;4937460;29;20040;-66
2024/03/28 02:57:35;;;;;;;5.38;3.22;;;;;;;;;;4935320;28;20422;-68
2024/03/28 03:00:03;;;;;;;8.45;4.28;;;;;;;;;;4935725;29;20055;-68
2024/03/28 03:02:30;;;;;;;5.82;4.07;;;;;;;;;;4935130;29;20056;-68
2024/03/28 03:04:56;;;;;;;5.35;3.72;;;;;;;;;;4936148;29;20043;-68
2024/03/28 03:07:22;;;;;;;7.18;3.95;;;;;;;;;;4932856;29;20503;-67
2024/03/28 03:09:48;;;;;;;7.07;3.55;;;;;;;;;;4938110;28;20051;-68
2024/03/28 03:12:14;;;;;;;4.47;3.22;;;;;;;;;;4932781;29;20048;-68
2024/03/28 03:14:40;;;;;;;5.78;3.55;;;;;;;;;;4949453;28;20039;-67
2024/03/28 03:17:06;;;;;;;6.05;3.72;;;;;;;;;;4936472;29;20694;-68
2024/03/28 03:19:32;;;;;;;6.05;4.03;;;;;;;;;;4933501;28;20567;-68
2024/03/28 03:21:59;;;;;;;5.72;3.55;;;;;;;;;;4953531;28;20078;-68
2024/03/28 03:24:27;;;;;;;7.18;3.85;;;;;;;;;;4946301;28;20507;-68
2024/03/28 03:27:00;;;;;;;6.40;3.20;;;;;;;;;;4952924;28;20043;-68
2024/03/28 03:34:57;;;;;;;6.25;3.60;;;;;;;;;;4933418;29;20035;-68
2024/03/28 03:37:25;;;;;;;5.05;3.45;;;;;;;;;;4946018;28;20032;-67
2024/03/28 03:39:55;;;;;;;3.75;2.72;;;;;;;;;;4950451;28;20039;-68
2024/03/28 03:42:21;;;;;;;5.30;3.50;;;;;;;;;;4930428;29;20050;-68
2024/03/28 03:44:48;;;;;;;6.38;3.78;;;;;;;;;;4939548;29;20057;-68
2024/03/28 03:47:14;;;;;;;5.95;3.83;;;;;;;;;;4935605;28;20047;-67
2024/03/28 03:49:44;;;;;;;6.75;3.95;;;;;;;;;;4949445;28;20531;-67
2024/03/28 03:52:10;;;;;;;;;;;;;;;;;;4928088;28;20051;-67
2024/03/28 03:54:37;;;;;;;6.95;3.53;;;;;;;;;;4934419;29;19921;-68
2024/03/28 03:57:04;;;;;;;5.40;3.63;;;;;;;;;;4931396;29;20031;-69
2024/03/28 03:59:31;;;;;;;5.70;3.63;;;;;;;;;;4930902;29;20102;-67
2024/03/28 04:01:57;;;;;;;7.05;3.72;;;;;;;;;;4929974;29;20051;-68
2024/03/28 04:04:23;;;;;;;6.22;3.72;;;;;;;;;;4946589;28;20522;-68
2024/03/28 04:06:50;;;;;;;7.20;4.00;;;;;;;;;;4934159;29;20365;-67
2024/03/28 04:09:16;;;;;;;4.43;3.17;;;;;;;;;;4931619;28;20051;-67
2024/03/28 04:11:42;;;;;;;5.88;3.55;;;;;;;;;;4928169;29;20075;-67
2024/03/28 04:14:08;;;;;;;6.15;3.00;;;;;;;;;;4949470;28;20110;-68
2024/03/28 04:16:34;;;;;;;6.18;3.30;;;;;;;;;;4933794;29;20499;-67
2024/03/28 04:19:01;;;;;;;4.78;2.85;;;;;;;;;;4948320;28;20058;-68
2024/03/28 04:21:34;;;;;;;6.40;3.05;;;;;;;;;;4914859;29;20039;-67
2024/03/28 04:24:04;;;;;;;4.55;2.92;;;;;;;;;;4933605;29;20090;-68
2024/03/28 04:26:31;;;;;;;3.70;2.47;;;;;;;;;;4951707;28;20384;-69
2024/03/28 04:28:57;;;;;;;3.80;2.53;;;;;;;;;;4932561;28;20064;-68
2024/03/28 04:31:24;;;;;;;4.07;2.42;;;;;;;;;;4950287;28;20407;-68
2024/03/28 04:33:51;;;;;;;3.63;2.72;;;;;;;;;;4944805;28;21162;-67
2024/03/28 04:36:18;;;;;;;4.25;2.67;;;;;;;;;;4930761;29;20043;-67
2024/03/28 04:38:44;;;;;;;2.63;2.10;;;;;;;;;;4913315;29;20036;-68
2024/03/28 04:41:13;;;;;;;3.65;2.30;;;;;;;;;;4929199;29;20046;-67
2024/03/28 04:43:40;;;;;;;4.47;2.75;;;;;;;;;;4934255;29;20039;-68
2024/03/28 04:46:06;;;;;;;3.95;2.67;;;;;;;;;;4932654;29;20071;-68
2024/03/28 04:48:32;;;;;;;3.78;2.70;;;;;;;;;;4946237;28;20401;-68
2024/03/28 04:50:59;;;;;;;4.55;2.78;;;;;;;;;;4931493;29;20046;-67
2024/03/28 04:53:25;;;;;;;5.47;2.63;;;;;;;;;;4945441;28;20055;-68
2024/03/28 04:55:51;;;;;;;4.97;2.95;;;;;;;;;;4927038;29;20062;-68
2024/03/28 04:58:17;;;;;;;5.15;3.17;;;;;;;;;;4930129;29;20040;-68
2024/03/28 05:00:43;;;;;;;4.57;2.75;;;;;;;;;;4930151;29;20058;-68
2024/03/28 05:03:09;;;;;;;5.20;3.10;;;;;;;;;;4949929;28;20055;-68
2024/03/28 05:05:35;;;;;;;4.50;2.28;;;;;;;;;;4931346;29;20487;-68
2024/03/28 05:08:02;;;;;;;2.80;1.73;;;;;;;;;;4932241;29;20530;-68
2024/03/28 05:10:28;;;;;;;2.75;1.40;;;;;;;;;;4931223;28;20051;-68
2024/03/28 05:12:56;;;;;;;1.63;1.20;;;;;;;;;;4945630;28;20051;-68
2024/03/28 05:15:22;;;;;;;1.52;1.30;;;;;;;;;;4944694;28;20047;-68
2024/03/28 05:17:48;;;;;;;7.25;3.47;;;;;;;;;;4948546;28;20068;-68
2024/03/28 05:20:14;;;;;;;10.75;4.78;;;;;;;;;;4929614;29;20051;-68
2024/03/28 05:22:40;;;;;;;11.10;5.47;;;;;;;;;;4933811;29;20054;-68
2024/03/28 05:25:06;;;;;;;10.75;6.15;;;;;;;;;;4945179;28;20050;-68
2024/03/28 05:27:35;;;;;;;2.08;1.65;;;;;;;;;;4918209;29;20416;-68
2024/03/28 05:30:02;;;;;;;1.93;1.57;;;;;;;;;;4933996;29;20042;-68
2024/03/28 05:32:29;;;;;;;2.85;1.90;;;;;;;;;;4927945;29;20044;-69
2024/03/28 05:34:55;;;;;;;3.47;1.90;;;;;;;;;;4931123;29;20074;-69
2024/03/28 05:37:21;;;;;;;6.55;3.10;;;;;;;;;;4929328;29;20047;-68
2024/03/28 05:39:48;;;;;;;6.05;3.10;;;;;;;;;;4929959;29;20365;-69
2024/03/28 05:42:14;;;;;;;1.98;1.65;;;;;;;;;;4911271;29;20055;-69
2024/03/28 05:44:40;;;;;;;4.07;2.08;;;;;;;;;;4931489;28;20046;-69
2024/03/28 05:47:06;;;;;;;2.85;1.90;;;;;;;;;;4931546;29;20044;-69
2024/03/28 05:49:32;;;;;;;4.78;2.10;;;;;;;;;;4942153;28;20043;-68
2024/03/28 05:52:00;;;;;;;2.83;1.70;;;;;;;;;;4944468;28;20456;-68
2024/03/28 05:54:26;;;;;;;2.70;1.80;;;;;;;;;;4943096;28;20510;-64
2024/03/28 05:56:52;;;;;;;2.38;1.75;;;;;;;;;;4931237;29;20039;-64
2024/03/28 05:59:18;;;;;;;5.85;1.67;;;;;;;;;;4899224;29;20473;-64
2024/03/28 06:01:44;;;;;;;3.28;1.77;;;;;;;;;;4910529;29;20047;-64
2024/03/28 06:04:11;;;;;;;2.72;1.88;;;;;;;;;;4943943;28;20059;-63
2024/03/28 06:06:37;;;;;;;5.25;2.28;;;;;;;;;;4945189;28;20051;-65
2024/03/28 06:09:03;;;;;;;5.00;2.40;;;;;;;;;;4929840;28;20046;-64
2024/03/28 06:11:29;;;;;;;3.35;2.10;;;;;;;;;;4934262;29;20047;-64
2024/03/28 06:14:08;;;;;;;3.38;2.13;;;;;;;;;;4951450;28;20031;-64
2024/03/28 06:16:34;;;;;;;3.25;1.70;;;;;;;;;;4950794;28;20043;-65
2024/03/28 06:19:02;;;;;;;3.53;1.50;;;;;;;;;;4918023;29;20401;-64
2024/03/28 06:21:28;;;;;;;2.75;1.50;;;;;;;;;;4951817;28;20040;-64
2024/03/28 06:23:54;;;;;;;2.80;1.42;;;;;;;;;;4931980;29;20127;-64
2024/03/28 06:26:20;;;;;;;2.90;1.48;;;;;;;;;;4933583;29;20404;-64
2024/03/28 06:28:48;;;;;;;1.88;1.30;;;;;;;;;;4940975;28;20526;-64
2024/03/28 06:31:16;;;;;;;1.88;1.40;;;;;;;;;;4947027;28;20059;-64
2024/03/28 06:33:45;;;;;;;1.80;1.37;;;;;;;;;;4933214;29;20515;-63
2024/03/28 06:36:11;;;;;;;1.48;1.08;;;;;;;;;;4932762;29;20303;-62
2024/03/28 06:38:37;;;;;;;1.40;1.20;;;;;;;;;;4948613;28;20158;-63
2024/03/28 06:41:03;;;;;;;2.05;1.50;;;;;;;;;;4931913;29;20035;-62
2024/03/28 06:43:29;;;;;;;1.50;1.17;;;;;;;;;;4935232;28;20062;-62
2024/03/28 06:45:56;;;;;;;1.40;1.00;;;;;;;;;;4935424;29;20535;-63
2024/03/28 06:48:23;;;;;;;1.77;1.20;;;;;;;;;;4934383;29;20051;-63
2024/03/28 06:50:49;;;;;;;1.48;0.80;;;;;;;;;;4918888;29;20043;-64
2024/03/28 06:53:15;;;;;;;1.55;1.08;;;;;;;;;;4930329;29;20051;-63
2024/03/28 06:55:41;;;;;;;1.63;1.00;;;;;;;;;;4933491;29;20050;-63
2024/03/28 06:58:08;;;;;;;2.83;1.40;;;;;;;;;;4948870;29;20024;-63
2024/03/28 07:00:34;;;;;;;2.03;1.30;;;;;;;;;;4932070;29;20039;-63
2024/03/28 07:03:00;;;;;;;2.10;1.27;;;;;;;;;;4931760;28;20043;-63
2024/03/28 07:05:27;;;;;;;2.55;1.40;;;;;;;;;;4931972;29;20516;-63
2024/03/28 07:07:54;;;;;;;3.00;1.75;;;;;;;;;;4932885;29;20032;-63
2024/03/28 07:10:20;;;;;;;2.83;1.50;;;;;;;;;;4933349;29;20036;-64
2024/03/28 07:12:46;;;;;;;1.42;1.10;;;;;;;;;;4951551;28;20047;-63
2024/03/28 07:15:13;;;;;;;1.98;1.25;;;;;;;;;;4950947;28;20055;-63
2024/03/28 07:17:39;;;;;;;1.48;1.05;;;;;;;;;;4949752;28;20043;-63
2024/03/28 07:20:07;;;;;;;1.58;1.08;;;;;;;;;;4950891;28;20059;-64
2024/03/28 07:22:34;;;;;;;1.20;0.80;;;;;;;;;;4950817;28;20116;-65
2024/03/28 07:25:00;;;;;;;2.08;1.40;;;;;;;;;;4936729;29;20036;-65
2024/03/28 07:27:28;;;;;;;5.57;1.20;;;;;;;;;;4929570;29;20225;-64
2024/03/28 07:29:54;;;;;;;4.20;1.30;;;;;;;;;;4929427;29;20139;-64
2024/03/28 07:32:22;;;;;;;4.07;1.13;;;;;;;;;;4932057;29;20051;-63
2024/03/28 07:34:48;;;;;;;1.33;0.90;;;;;;;;;;4947898;28;20071;-64
2024/03/28 07:37:14;;;;;;;2.20;1.27;;;;;;;;;;4947236;28;20058;-65
2024/03/28 07:39:40;;;;;;;1.55;1.20;;;;;;;;;;4931959;29;20476;-64
2024/03/28 07:42:07;;;;;;;1.90;1.30;;;;;;;;;;4932641;29;20507;-64
2024/03/28 07:44:33;;;;;;;3.88;1.95;;;;;;;;;;4949282;28;20047;-64
2024/03/28 07:46:59;;;;;;;1.85;1.00;;;;;;;;;;4933597;29;20078;-63
2024/03/28 07:49:26;;;;;;;1.55;0.70;;;;;;;;;;4949640;28;20047;-64
2024/03/28 07:51:52;;;;;;;1.33;0.80;;;;;;;;;;4929474;29;20509;-63
2024/03/28 07:54:18;;;;;;;1.92;0.80;;;;;;;;;;4930013;29;20066;-63
2024/03/28 07:56:44;;;;;;;2.28;0.80;;;;;;;;;;4930361;29;20043;-63
2024/03/28 07:59:11;;;;;;;0.93;0.70;;;;;;;;;;4934770;28;20040;-63
2024/03/28 08:01:37;;;;;;;0.90;0.60;;;;;;;;;;4946094;28;20078;-63
2024/03/28 08:04:03;;;;;;;0.80;0.60;;;;;;;;;;4915818;29;20043;-63
2024/03/28 08:06:29;;;;;;;1.70;0.60;;;;;;;;;;4934367;29;20050;-63
2024/03/28 08:08:56;;;;;;;1.05;0.60;;;;;;;;;;4915977;29;20043;-64
2024/03/28 08:11:22;;;;;;;0.82;0.60;;;;;;;;;;4931335;29;20051;-63
2024/03/28 08:13:49;;;;;;;0.63;0.60;;;;;;;;;;4933115;29;20059;-63
2024/03/28 08:16:15;;;;;;;1.17;1.00;;;;;;;;;;4947451;28;20039;-64
2024/03/28 08:18:42;;;;;;;0.40;0.40;;;;;;;;;;4933575;29;20040;-63
2024/03/28 08:21:08;;;;;;;0.40;0.40;;;;;;;;;;4929782;29;20381;-63
2024/03/28 08:23:34;;;;;;;0.32;0.32;;;;;;;;;;4934959;28;20523;-63
2024/03/28 08:26:00;;;;;;;0.80;0.80;;;;;;;;;;4930559;29;20058;-63
2024/03/28 08:28:26;;;;;;;0.40;0.38;;;;;;;;;;4930091;29;20062;-64
2024/03/28 08:30:52;;;;;;;0.65;0.55;;;;;;;;;;4931655;29;20059;-63
2024/03/28 08:33:19;;;;;;;0.50;0.40;;;;;;;;;;4946867;28;20059;-64
2024/03/28 08:35:46;;;;;;;0.60;0.50;;;;;;;;;;4928300;29;20055;-63
2024/03/28 08:38:12;;;;;;;0.73;0.50;;;;;;;;;;4932425;29;20038;-64
2024/03/28 08:40:38;;;;;;;1.02;0.50;;;;;;;;;;4932189;29;20035;-64
2024/03/28 08:43:05;;;;;;;0.52;0.52;;;;;;;;;;4932177;29;20509;-64
2024/03/28 08:45:35;;;;;;;1.10;0.40;;;;;;;;;;4933958;29;20051;-64
2024/03/28 08:48:02;;;;;;;;;;;;;;;;;;4935463;29;20067;-64
2024/03/28 08:50:28;;;;;;;4.30;1.95;;;;;;;;;;4930895;28;19919;-64
2024/03/28 08:52:54;;;;;;;1.33;0.63;;;;;;;;;;4931589;29;20035;-64
2024/03/28 08:55:22;;;;;;;0.55;0.55;;;;;;;;;;4931239;29;20412;-64
2024/03/28 08:57:50;;;;;;;1.30;0.50;;;;;;;;;;4932480;29;20044;-64
2024/03/28 09:00:19;;;;;;;1.95;0.70;;;;;;;;;;4928296;29;20047;-64
2024/03/28 09:02:46;;;;;;;0.65;0.43;;;;;;;;;;4932787;28;20560;-64
2024/03/28 09:05:15;;;;;;;0.77;0.40;;;;;;;;;;4932986;29;20039;-64
2024/03/28 09:07:42;;;;;;;0.40;0.30;;;;;;;;;;4948755;28;20055;-64
2024/03/28 09:10:09;;;;;;;1.05;0.40;;;;;;;;;;4932708;29;20444;-64
2024/03/28 09:12:36;;;;;;;0.82;0.40;;;;;;;;;;4930751;28;20048;-64
2024/03/28 09:15:03;;;;;;;2.58;0.57;;;;;;;;;;4934826;29;20051;-64
2024/03/28 09:17:29;;;;;;;1.25;0.70;;;;;;;;;;4930681;29;20058;-64
2024/03/28 09:19:57;;;;;;;0.60;0.52;;;;;;;;;;4931134;28;20040;-64
2024/03/28 09:22:23;;;;;;;0.40;0.40;;;;;;;;;;4944840;29;20051;-64
2024/03/28 09:24:49;;;;;;;0.50;0.50;;;;;;;;;;4931416;29;20040;-63
2024/03/28 09:27:16;;;;;;;1.30;0.45;;;;;;;;;;4930118;29;20142;-64
2024/03/28 09:29:43;;;;;;;1.05;0.50;;;;;;;;;;4931127;29;20042;-64
2024/03/28 09:32:09;;;;;;;0.40;0.40;;;;;;;;;;4929477;29;20043;-64
2024/03/28 09:34:37;;;;;;;0.40;0.40;;;;;;;;;;4944851;28;20043;-64
2024/03/28 09:37:07;;;;;;;0.90;0.45;;;;;;;;;;4930540;29;20074;-64
2024/03/28 09:39:34;;;;;;;2.20;0.88;;;;;;;;;;4931686;29;20032;-64
2024/03/28 09:42:02;;;;;;;1.55;0.60;;;;;;;;;;4948876;29;20043;-64
2024/03/28 09:44:30;;;;;;;2.35;1.30;;;;;;;;;;4937349;29;20044;-63
2024/03/28 09:46:59;;;;;;;1.50;0.98;;;;;;;;;;4953511;28;20042;-64
2024/03/28 09:49:26;;;;;;;1.42;0.65;;;;;;;;;;4937142;28;20487;-63
2024/03/28 09:51:56;;;;;;;0.77;0.63;;;;;;;;;;4949652;28;20036;-63
2024/03/28 09:54:23;;;;;;;0.57;0.55;;;;;;;;;;4934761;29;20115;-63
2024/03/28 09:56:53;;;;;;;2.05;0.68;;;;;;;;;;4935070;29;20032;-63
2024/03/28 09:59:20;;;;;;;2.60;1.10;;;;;;;;;;4935628;29;20044;-63
2024/03/28 10:01:47;;;;;;;1.92;0.90;;;;;;;;;;4946518;28;20066;-63
2024/03/28 10:04:17;;;;;;;0.75;0.55;;;;;;;;;;4933720;29;20054;-64
2024/03/28 10:06:52;;;;;;;1.88;0.50;;;;;;;;;;4935008;29;20039;-65
2024/03/28 10:09:19;;;;;;;0.65;0.50;;;;;;;;;;4937433;29;20039;-63
2024/03/28 10:11:45;;;;;;;0.55;0.40;;;;;;;;;;4935555;29;20031;-63
2024/03/28 10:14:16;;;;;;;1.25;0.98;;;;;;;;;;4932884;29;20504;-62
2024/03/28 10:16:42;;;;;;;1.20;0.47;;;;;;;;;;4937352;29;20035;-63
2024/03/28 10:19:09;;;;;;;0.65;0.60;;;;;;;;;;4934943;28;20047;-63
2024/03/28 10:21:38;;;;;;;0.50;0.38;;;;;;;;;;4933029;29;20036;-64
2024/03/28 10:24:05;;;;;;;1.43;0.60;;;;;;;;;;4937195;29;20388;-64
2024/03/28 10:26:33;;;;;;;1.00;0.77;;;;;;;;;;4947402;28;20303;-63
2024/03/28 10:28:59;;;;;;;1.27;0.70;;;;;;;;;;4932637;29;20393;-64
2024/03/28 10:31:26;;;;;;;0.73;0.70;;;;;;;;;;4932935;29;20032;-64
2024/03/28 10:33:53;;;;;;;0.50;0.50;;;;;;;;;;4933545;29;20411;-63
2024/03/28 10:36:24;;;;;;;0.50;0.40;;;;;;;;;;4934279;29;20032;-63
2024/03/28 10:39:03;;;;;;;0.40;0.40;;;;;;;;;;4932393;28;20048;-63
2024/03/28 10:41:29;;;;;;;1.08;0.50;;;;;;;;;;4931902;29;20035;-63
2024/03/28 10:43:59;;;;;;;1.38;0.63;;;;;;;;;;4936372;29;20067;-63
2024/03/28 10:46:27;;;;;;;1.75;0.70;;;;;;;;;;4933839;29;20043;-63
2024/03/28 10:48:57;;;;;;;0.73;0.50;;;;;;;;;;4934453;29;20046;-63
2024/03/28 10:51:31;;;;;;;2.72;0.85;;;;;;;;;;4932143;29;20042;-64
2024/03/28 10:54:25;;;;;;;2.20;1.05;;;;;;;;;;4936575;29;20052;-64
2024/03/28 10:56:54;;;;;;;0.43;0.43;;;;;;;;;;4931332;29;20044;-63
2024/03/28 10:59:21;;;;;;;0.88;0.40;;;;;;;;;;4932973;29;20080;-63
2024/03/28 11:01:48;;;;;;;0.80;0.57;;;;;;;;;;4934411;29;20496;-64
2024/03/28 11:04:16;;;;;;;0.70;0.70;;;;;;;;;;4935417;28;20048;-64
2024/03/28 11:06:43;;;;;;;0.95;0.60;;;;;;;;;;4935557;28;20052;-64
2024/03/28 11:09:11;;;;;;;2.22;1.08;;;;;;;;;;4934302;29;20066;-65
2024/03/28 11:11:37;;;;;;;1.25;0.77;;;;;;;;;;4930143;29;20108;-64
2024/03/28 11:14:03;;;;;;;4.70;0.90;;;;;;;;;;4932907;29;20051;-63
2024/03/28 11:16:29;;;;;;;1.90;0.70;;;;;;;;;;4935041;29;20051;-63
2024/03/28 11:19:02;;;;;;;1.65;0.70;;;;;;;;;;4932856;29;20051;-63
2024/03/28 11:21:29;;;;;;;2.42;1.08;;;;;;;;;;4931396;29;20054;-63
2024/03/28 11:23:56;;;;;;;1.17;0.45;;;;;;;;;;4947098;28;20036;-63
2024/03/28 11:26:23;;;;;;;1.85;0.60;;;;;;;;;;4932811;29;20036;-63
2024/03/28 11:29:08;;;;;;;3.70;0.68;;;;;;;;;;4946636;28;20043;-64
2024/03/28 11:31:34;;;;;;;1.13;0.60;;;;;;;;;;4932281;29;20050;-63
2024/03/28 11:34:04;;;;;;;0.57;0.40;;;;;;;;;;4932994;29;20027;-64
2024/03/28 11:36:31;;;;;;;4.78;1.70;;;;;;;;;;4947246;28;20055;-63
2024/03/28 11:38:58;;;;;;;0.63;0.40;;;;;;;;;;4932076;29;20043;-64
2024/03/28 11:41:26;;;;;;;0.85;0.40;;;;;;;;;;4932360;29;20042;-63
2024/03/28 11:43:54;;;;;;;0.30;0.30;;;;;;;;;;4933859;29;20067;-63
2024/03/28 11:46:26;;;;;;;3.05;0.40;;;;;;;;;;4932603;29;20047;-63
2024/03/28 11:48:56;;;;;;;2.80;0.63;;;;;;;;;;4931483;29;20093;-63
2024/03/28 11:51:23;;;;;;;1.42;0.70;;;;;;;;;;4930265;29;20496;-63
2024/03/28 11:53:49;;;;;;;0.70;0.70;;;;;;;;;;4933401;29;20043;-63
2024/03/28 11:56:23;;;;;;;1.05;0.50;;;;;;;;;;4929590;29;20396;-64
2024/03/28 11:58:49;;;;;;;2.20;0.60;;;;;;;;;;4933595;29;20043;-64
2024/03/28 12:01:18;;;;;;;1.42;0.60;;;;;;;;;;4929991;29;20035;-63
2024/03/28 12:03:45;;;;;;;1.15;0.55;;;;;;;;;;4931726;29;20441;-63
2024/03/28 12:06:11;;;;;;;2.30;0.70;;;;;;;;;;4933930;29;20051;-63
2024/03/28 12:08:44;;;;;;;1.05;0.85;;;;;;;;;;4927370;29;20043;-64
2024/03/28 12:11:10;;;;;;;0.90;0.60;;;;;;;;;;4945560;28;20498;-64
2024/03/28 12:13:36;;;;;;;1.40;0.70;;;;;;;;;;4931494;29;20488;-64
2024/03/28 12:16:06;;;;;;;1.67;1.20;;;;;;;;;;4935027;29;20048;-63
2024/03/28 12:18:35;;;;;;;0.75;0.40;;;;;;;;;;4933701;29;20050;-63
2024/03/28 12:21:02;;;;;;;0.83;0.53;;;;;;;;;;4930949;29;20039;-64
2024/03/28 12:23:29;;;;;;;0.60;0.30;;;;;;;;;;4948357;28;20507;-64
2024/03/28 12:25:55;;;;;;;1.38;0.63;;;;;;;;;;4931107;29;20047;-63
2024/03/28 12:28:23;;;;;;;2.00;0.60;;;;;;;;;;4930401;29;20066;-64
2024/03/28 12:30:50;;;;;;;1.60;0.50;;;;;;;;;;4931346;29;20166;-64
2024/03/28 12:33:16;;;;;;;0.65;0.50;;;;;;;;;;4932678;29;20040;-64
2024/03/28 12:35:44;;;;;;;1.48;0.50;;;;;;;;;;4932323;29;20050;-64
2024/03/28 12:38:14;;;;;;;0.70;0.50;;;;;;;;;;4934247;29;20219;-63
2024/03/28 12:40:44;;;;;;;0.73;0.40;;;;;;;;;;4932345;29;20047;-64
2024/03/28 12:43:18;;;;;;;3.50;0.30;;;;;;;;;;4932970;29;20495;-64
2024/03/28 12:45:44;;;;;;;0.30;0.30;;;;;;;;;;4927557;29;20051;-64
2024/03/28 12:48:11;;;;;;;1.35;0.28;;;;;;;;;;4930805;29;20071;-64
2024/03/28 12:50:39;;;;;;;0.70;0.20;;;;;;;;;;4929939;29;20043;-64
2024/03/28 12:53:06;;;;;;;1.67;0.50;;;;;;;;;;4931673;29;20051;-63
2024/03/28 12:55:34;;;;;;;1.08;0.70;;;;;;;;;;4930455;29;20101;-64
2024/03/28 12:58:00;;;;;;;0.98;0.50;;;;;;;;;;4934520;28;20050;-63
2024/03/28 13:00:26;;;;;;;0.60;0.50;;;;;;;;;;4931902;29;20059;-63
2024/03/28 13:02:52;;;;;;;0.43;0.40;;;;;;;;;;4932831;29;20035;-62
2024/03/28 13:05:19;;;;;;;0.50;0.32;;;;;;;;;;4933783;29;20150;-63
2024/03/28 13:07:45;;;;;;;1.05;0.55;;;;;;;;;;4936415;29;20400;-63
2024/03/28 13:10:11;;;;;;;2.20;0.80;;;;;;;;;;4932398;28;20102;-63
2024/03/28 13:12:38;;;;;;;0.73;0.30;;;;;;;;;;4930221;29;20048;-63
2024/03/28 13:15:04;;;;;;;0.60;0.20;;;;;;;;;;4933413;29;20051;-63
2024/03/28 13:17:32;;;;;;;0.35;0.20;;;;;;;;;;4950574;28;20047;-63
2024/03/28 13:19:58;;;;;;;0.55;0.30;;;;;;;;;;4932049;29;20054;-63
2024/03/28 13:22:24;;;;;;;0.32;0.30;;;;;;;;;;4925884;29;20063;-63
2024/03/28 13:24:50;;;;;;;2.92;0.30;;;;;;;;;;4930468;29;20411;-63
2024/03/28 13:27:17;;;;;;;3.17;0.40;;;;;;;;;;4931789;29;20608;-63
2024/03/28 13:29:43;;;;;;;0.80;0.47;;;;;;;;;;4925393;29;20043;-64
2024/03/28 13:32:12;;;;;;;1.15;0.50;;;;;;;;;;4930127;29;20031;-64
2024/03/28 13:34:38;;;;;;;1.17;0.30;;;;;;;;;;4930751;29;20492;-63
2024/03/28 13:37:05;;;;;;;0.30;0.30;;;;;;;;;;4930306;29;20040;-63
2024/03/28 13:39:31;;;;;;;0.38;0.30;;;;;;;;;;4932289;29;20039;-63
2024/03/28 13:41:57;;;;;;;0.77;0.30;;;;;;;;;;4929199;29;20463;-62
2024/03/28 13:44:23;;;;;;;0.75;0.38;;;;;;;;;;4930517;29;20051;-64
2024/03/28 13:46:50;;;;;;;1.17;0.30;;;;;;;;;;4931359;29;20463;-63
2024/03/28 13:49:27;;;;;;;0.30;0.30;;;;;;;;;;4928112;29;20396;-63
2024/03/28 13:51:54;;;;;;;1.30;0.32;;;;;;;;;;4929152;29;20058;-64
2024/03/28 13:54:20;;;;;;;0.98;0.50;;;;;;;;;;4931038;29;20123;-64
2024/03/28 13:56:46;;;;;;;1.63;0.63;;;;;;;;;;4931277;29;20039;-64
2024/03/28 13:59:13;;;;;;;1.23;0.80;;;;;;;;;;4930672;28;20048;-64
2024/03/28 14:01:41;;;;;;;1.02;0.40;;;;;;;;;;4929653;29;20415;-63
2024/03/28 14:04:10;;;;;;;2.30;1.23;;;;;;;;;;4933748;28;20157;-64
2024/03/28 14:06:37;;;;;;;;;;;;;;;;;;4932778;29;20055;-64
2024/03/28 14:09:03;;;;;;;0.52;0.30;;;;;;;;;;4930724;29;19935;-64
2024/03/28 14:11:30;;;;;;;0.40;0.22;;;;;;;;;;4928479;29;20031;-64
2024/03/28 14:13:56;;;;;;;1.52;0.40;;;;;;;;;;4933588;29;20039;-64
2024/03/28 14:16:22;;;;;;;2.17;0.55;;;;;;;;;;4932725;29;20147;-62
2024/03/28 14:18:48;;;;;;;2.65;0.40;;;;;;;;;;4935121;29;20411;-65
2024/03/28 14:21:14;;;;;;;2.03;0.57;;;;;;;;;;4932720;28;20041;-63
2024/03/28 14:23:40;;;;;;;0.70;0.50;;;;;;;;;;4929690;29;20384;-64
2024/03/28 14:26:06;;;;;;;0.50;0.22;;;;;;;;;;4930597;28;20129;-64
2024/03/28 14:28:34;;;;;;;0.20;0.20;;;;;;;;;;4932813;29;20059;-64
2024/03/28 14:31:13;;;;;;;3.67;0.55;;;;;;;;;;4934411;28;20055;-63
2024/03/28 14:33:40;;;;;;;;;;;;;;;;;;4933990;29;20043;-63
2024/03/28 14:36:08;;;;;;;0.93;0.32;;;;;;;;;;4935105;29;19915;-63
2024/03/28 14:38:35;;;;;;;0.50;0.30;;;;;;;;;;4933858;28;20074;-63
2024/03/28 14:41:05;;;;;;;0.50;0.50;;;;;;;;;;4933159;29;20055;-64
2024/03/28 14:43:33;;;;;;;0.70;0.40;;;;;;;;;;4947182;28;20074;-64
2024/03/28 14:46:06;;;;;;;2.25;0.55;;;;;;;;;;4949517;28;20046;-64
2024/03/28 14:48:32;;;;;;;1.65;0.60;;;;;;;;;;4934156;29;20060;-64